createdAt,value
2022-12-07T00:00:07.918Z,100.00
2022-12-07T00:05:10.366Z,100.00
2022-12-07T00:10:12.717Z,100.00
2022-12-07T00:15:15.174Z,100.00
2022-12-07T00:20:17.811Z,100.00
2022-12-07T00:25:20.198Z,100.00
2022-12-07T00:30:23.018Z,100.00
2022-12-07T00:35:25.774Z,100.00
2022-12-07T00:40:28.531Z,100.00
2022-12-07T00:45:30.916Z,100.00
2022-12-07T00:50:33.421Z,100.00
2022-12-07T00:55:36.919Z,100.00
2022-12-07T01:00:41.398Z,100.00
2022-12-07T01:05:52.533Z,100.00
2022-12-07T01:11:05.618Z,100.00
2022-12-07T01:16:09.348Z,100.00
2022-12-07T01:21:15.518Z,100.00
2022-12-07T01:26:21.147Z,100.00
2022-12-07T01:31:25.481Z,100.00
2022-12-07T01:36:31.905Z,100.00
2022-12-07T01:41:41.403Z,100.00
2022-12-07T01:46:47.076Z,100.00
2022-12-07T01:51:52.044Z,100.00
2022-12-07T01:56:57.995Z,100.00
2022-12-07T02:02:03.145Z,100.00
2022-12-07T02:07:06.658Z,100.00
2022-12-07T02:12:09.301Z,100.00
2022-12-07T02:17:20.534Z,100.00
2022-12-07T02:22:41.126Z,100.00
2022-12-07T02:28:21.522Z,100.00
2022-12-07T02:33:35.043Z,100.00
2022-12-07T02:38:43.557Z,100.00
2022-12-07T02:43:55.406Z,100.00
2022-12-07T02:49:00.641Z,100.00
2022-12-07T02:54:03.318Z,100.00
2022-12-07T02:59:27.810Z,100.00
2022-12-07T03:04:42.140Z,100.00
2022-12-07T03:09:54.669Z,100.00
2022-12-07T03:15:11.505Z,100.00
2022-12-07T03:20:18.605Z,100.00
2022-12-07T03:25:21.426Z,100.00
2022-12-07T03:30:42.919Z,100.00
2022-12-07T03:36:01.630Z,100.00
2022-12-07T03:41:11.210Z,100.00
2022-12-07T03:46:44.512Z,100.00
2022-12-07T03:52:18.521Z,100.00
2022-12-07T03:57:22.650Z,100.00
2022-12-07T04:02:28.665Z,100.00
2022-12-07T04:07:31.181Z,100.00
2022-12-07T04:12:33.618Z,100.00
2022-12-07T04:17:36.125Z,100.00
2022-12-07T04:22:38.515Z,100.00
2022-12-07T04:27:40.942Z,100.00
2022-12-07T04:32:43.542Z,100.00
2022-12-07T04:37:45.931Z,100.00
2022-12-07T04:42:51.193Z,100.00
2022-12-07T04:47:53.575Z,100.00
2022-12-07T04:52:56.170Z,100.00
2022-12-07T04:57:58.701Z,100.00
2022-12-07T05:03:01.078Z,98.63
2022-12-07T05:08:03.650Z,96.48
2022-12-07T05:13:06.238Z,100.00
2022-12-07T05:18:08.732Z,100.00
2022-12-07T05:23:11.283Z,100.00
2022-12-07T05:28:13.979Z,100.00
2022-12-07T05:33:16.369Z,100.00
2022-12-07T05:38:18.753Z,100.00
2022-12-07T05:43:21.114Z,100.00
2022-12-07T05:48:23.996Z,100.00
2022-12-07T05:53:26.618Z,100.00
2022-12-07T05:58:47.617Z,100.00
2022-12-07T06:03:49.991Z,100.00
2022-12-07T06:08:52.394Z,100.00
2022-12-07T06:13:54.890Z,100.00
2022-12-07T06:18:57.688Z,100.00
2022-12-07T06:24:00.138Z,100.00
2022-12-07T06:29:02.575Z,100.00
2022-12-07T06:34:08.191Z,100.00
2022-12-07T06:39:11.358Z,100.00
2022-12-07T06:44:14.035Z,100.00
2022-12-07T06:49:16.735Z,100.00
2022-12-07T06:54:19.156Z,100.00
2022-12-07T06:59:21.600Z,100.00
2022-12-07T07:04:24.720Z,98.96
2022-12-07T07:09:27.513Z,95.05
2022-12-07T07:14:29.980Z,98.30
2022-12-07T07:19:32.396Z,98.61
2022-12-07T07:24:34.840Z,100.00
2022-12-07T07:29:37.436Z,98.78
2022-12-07T07:34:40.711Z,95.43
2022-12-07T07:39:43.140Z,96.51
2022-12-07T07:44:45.656Z,92.65
2022-12-07T07:49:48.495Z,94.49
2022-12-07T07:54:50.995Z,98.67
2022-12-07T07:59:53.387Z,100.00
2022-12-07T08:04:56.058Z,95.06
2022-12-07T08:09:58.878Z,100.00
2022-12-07T08:15:01.303Z,100.00
2022-12-07T08:20:04.181Z,100.00
2022-12-07T08:25:07.211Z,100.00
2022-12-07T08:30:10.050Z,96.31
2022-12-07T08:35:12.696Z,88.09
2022-12-07T08:40:16.629Z,96.16
2022-12-07T08:45:26.291Z,100.00
2022-12-07T08:50:30.299Z,85.79
2022-12-07T08:55:34.480Z,87.42
2022-12-07T09:00:37.184Z,91.49
2022-12-07T09:05:39.815Z,92.94
2022-12-07T09:10:42.305Z,85.17
2022-12-07T09:15:44.791Z,89.49
2022-12-07T09:20:47.255Z,84.67
2022-12-07T09:25:49.872Z,89.11
2022-12-07T09:31:22.168Z,84.93
2022-12-07T09:36:14.735Z,83.60
2022-12-07T09:41:17.323Z,89.26
2022-12-07T09:46:21.858Z,98.07
2022-12-07T09:51:26.203Z,87.47
2022-12-07T09:56:34.217Z,83.21
2022-12-07T10:01:40.225Z,84.31
2022-12-07T10:06:43.465Z,89.77
2022-12-07T10:12:04.631Z,84.87
2022-12-07T10:17:42.051Z,86.72
2022-12-07T10:22:57.120Z,86.29
2022-12-07T10:28:09.523Z,89.16
2022-12-07T10:33:35.086Z,86.52
2022-12-07T10:38:47.172Z,87.14
2022-12-07T10:43:52.087Z,91.46
2022-12-07T10:49:12.737Z,85.79
2022-12-07T10:54:33.906Z,88.62
2022-12-07T10:59:44.454Z,87.03
2022-12-07T11:05:05.489Z,88.72
2022-12-07T11:10:26.343Z,89.70
2022-12-07T11:15:47.032Z,90.62
2022-12-07T11:21:20.557Z,92.16
2022-12-07T11:26:47.827Z,92.55
2022-12-07T11:32:21.098Z,91.57
2022-12-07T11:37:38.291Z,93.92
2022-12-07T11:42:57.330Z,92.01
2022-12-07T11:48:04.873Z,88.51
2022-12-07T11:53:10.196Z,90.45
2022-12-07T11:58:30.080Z,93.77
2022-12-07T12:03:39.393Z,100.00
2022-12-07T12:14:36.769Z,100.00
2022-12-07T12:20:16.646Z,100.00
2022-12-07T12:25:35.872Z,100.00
2022-12-07T12:30:40.846Z,100.00
2022-12-07T12:35:43.822Z,100.00
2022-12-07T12:40:50.671Z,100.00
2022-12-07T12:46:33.073Z,100.00
2022-12-07T12:51:40.246Z,100.00
2022-12-07T12:57:13.515Z,100.00
2022-12-07T13:02:48.856Z,100.00
2022-12-07T13:08:15.124Z,100.00
2022-12-07T13:13:20.264Z,100.00
2022-12-07T13:18:28.720Z,100.00
2022-12-07T13:23:37.054Z,100.00
2022-12-07T13:28:48.809Z,96.83
2022-12-07T13:33:51.640Z,100.00
2022-12-07T13:39:11.482Z,98.56
2022-12-07T13:44:16.523Z,96.05
2022-12-07T13:49:30.292Z,88.35
2022-12-07T13:54:32.955Z,92.47
2022-12-07T13:59:35.479Z,100.00
2022-12-07T14:04:39.170Z,100.00
2022-12-07T14:09:42.060Z,100.00
2022-12-07T14:14:52.069Z,100.00
2022-12-07T14:19:57.831Z,100.00
2022-12-07T14:25:02.922Z,100.00
2022-12-07T14:30:07.266Z,100.00
2022-12-07T14:35:11.404Z,100.00
2022-12-07T14:40:20.404Z,99.18
2022-12-07T14:45:23.941Z,100.00
2022-12-07T14:50:26.594Z,100.00
2022-12-07T14:55:33.233Z,93.65
2022-12-07T15:00:35.870Z,97.27
2022-12-07T15:05:38.930Z,100.00
2022-12-07T15:10:41.529Z,100.00
2022-12-07T15:15:43.994Z,100.00
2022-12-07T15:20:47.602Z,100.00
2022-12-07T15:25:50.633Z,100.00
2022-12-07T15:30:53.176Z,100.00
2022-12-07T15:35:55.860Z,100.00
2022-12-07T15:40:58.888Z,100.00
2022-12-07T15:46:01.439Z,100.00
2022-12-07T15:51:05.846Z,100.00
2022-12-07T15:56:09.428Z,100.00
2022-12-07T16:01:13.222Z,100.00
2022-12-07T16:06:19.351Z,96.94
2022-12-07T16:11:22.746Z,100.00
2022-12-07T16:16:25.477Z,100.00
2022-12-07T16:21:28.411Z,100.00
2022-12-07T16:26:31.181Z,100.00
2022-12-07T16:31:33.774Z,100.00
2022-12-07T16:37:06.057Z,100.00
2022-12-07T16:41:58.892Z,100.00
2022-12-07T16:47:02.252Z,100.00
2022-12-07T16:52:21.427Z,100.00
2022-12-07T16:57:24.313Z,100.00
2022-12-07T17:02:26.968Z,100.00
2022-12-07T17:07:29.723Z,100.00
2022-12-07T17:12:32.234Z,100.00
2022-12-07T17:17:34.795Z,100.00
2022-12-07T17:22:37.337Z,100.00
2022-12-07T17:27:40.564Z,100.00
2022-12-07T17:32:42.969Z,100.00
2022-12-07T17:37:50.662Z,100.00
2022-12-07T17:42:53.941Z,100.00
2022-12-07T17:47:56.752Z,100.00
2022-12-07T17:53:11.449Z,100.00
2022-12-07T17:58:13.901Z,100.00
2022-12-07T18:03:16.432Z,100.00
2022-12-07T18:08:19.047Z,100.00
2022-12-07T18:13:36.962Z,100.00
2022-12-07T18:18:39.923Z,100.00
2022-12-07T18:23:43.987Z,100.00
2022-12-07T18:28:47.036Z,100.00
2022-12-07T18:33:49.860Z,100.00
2022-12-07T18:38:52.792Z,100.00
2022-12-07T18:43:55.197Z,100.00
2022-12-07T18:48:58.290Z,98.08
2022-12-07T18:54:02.299Z,100.00
2022-12-07T18:59:24.035Z,98.22
2022-12-07T19:04:26.677Z,100.00
2022-12-07T19:09:29.305Z,100.00
2022-12-07T19:14:37.659Z,100.00
2022-12-07T19:19:43.217Z,100.00
2022-12-07T19:24:48.707Z,100.00
2022-12-07T19:29:51.484Z,100.00
2022-12-07T19:34:54.588Z,100.00
2022-12-07T19:39:57.214Z,100.00
2022-12-07T19:44:59.916Z,100.00
2022-12-07T19:50:02.369Z,100.00
2022-12-07T19:55:05.465Z,100.00
2022-12-07T20:00:08.661Z,100.00
2022-12-07T20:05:11.244Z,100.00
2022-12-07T20:10:13.872Z,99.52
2022-12-07T20:15:16.635Z,98.46
2022-12-07T20:20:19.250Z,99.54
2022-12-07T20:25:21.750Z,100.00
2022-12-07T20:30:24.262Z,100.00
2022-12-07T20:35:26.880Z,100.00
2022-12-07T20:40:29.468Z,99.52
2022-12-07T20:45:31.958Z,96.44
2022-12-07T20:50:39.001Z,96.69
2022-12-07T20:55:44.593Z,98.53
2022-12-07T21:00:47.097Z,98.77
2022-12-07T21:05:51.045Z,98.33
2022-12-07T21:10:53.503Z,98.00
2022-12-07T21:15:56.059Z,100.00
2022-12-07T21:21:02.885Z,100.00
2022-12-07T21:26:13.193Z,100.00
2022-12-07T21:31:16.099Z,100.00
2022-12-07T21:36:24.391Z,100.00
2022-12-07T21:41:30.732Z,100.00
2022-12-07T21:46:34.743Z,100.00
2022-12-07T21:51:37.933Z,100.00
2022-12-07T21:56:41.967Z,96.64
2022-12-07T22:01:48.759Z,100.00
2022-12-07T22:06:52.091Z,100.00
2022-12-07T22:11:54.522Z,100.00
2022-12-07T22:16:57.908Z,100.00
2022-12-07T22:22:00.399Z,96.12
2022-12-07T22:27:02.886Z,100.00
2022-12-07T22:32:24.600Z,100.00
2022-12-07T22:37:29.822Z,100.00
2022-12-07T22:42:32.630Z,100.00
2022-12-07T22:47:35.087Z,100.00
2022-12-07T22:52:37.503Z,100.00
2022-12-07T22:57:40.059Z,100.00
2022-12-07T23:02:42.598Z,100.00
2022-12-07T23:07:45.138Z,100.00
2022-12-07T23:13:06.382Z,100.00
2022-12-07T23:18:13.978Z,100.00
2022-12-07T23:23:16.446Z,100.00
2022-12-07T23:28:19.237Z,100.00
2022-12-07T23:33:24.134Z,100.00
2022-12-07T23:38:26.689Z,100.00
2022-12-07T23:43:29.396Z,99.98
2022-12-07T23:48:31.828Z,100.00
2022-12-07T23:53:39.264Z,100.00
2022-12-07T23:58:42.210Z,100.00
